createdAt,value
2018-09-15T00:01:18.434Z,70.97
2018-09-15T00:04:22.061Z,71.30
2018-09-15T00:07:25.808Z,71.21
2018-09-15T00:10:29.431Z,71.32
2018-09-15T00:13:33.096Z,71.49
2018-09-15T00:16:36.815Z,72.45
2018-09-15T00:19:40.478Z,72.19
2018-09-15T00:22:44.230Z,73.81
2018-09-15T00:25:47.900Z,73.30
2018-09-15T00:28:51.533Z,73.17
2018-09-15T00:31:55.277Z,73.82
2018-09-15T00:34:58.896Z,74.27
2018-09-15T00:38:02.599Z,73.89
2018-09-15T00:41:06.364Z,74.60
2018-09-15T00:44:10.021Z,74.23
2018-09-15T00:47:13.640Z,74.22
2018-09-15T00:50:17.300Z,74.69
2018-09-15T00:53:20.916Z,74.49
2018-09-15T00:56:24.479Z,74.17
2018-09-15T00:59:28.167Z,73.71
2018-09-15T01:02:31.801Z,73.94
2018-09-15T01:05:35.587Z,73.85
2018-09-15T01:08:39.214Z,74.60
2018-09-15T01:11:43.171Z,74.68
2018-09-15T01:14:46.834Z,75.50
2018-09-15T01:17:50.534Z,75.61
2018-09-15T01:20:54.207Z,76.00
2018-09-15T01:23:57.799Z,76.35
2018-09-15T01:27:01.464Z,76.65
2018-09-15T01:30:05.242Z,76.98
2018-09-15T01:33:09.006Z,76.45
2018-09-15T01:36:12.821Z,76.45
2018-09-15T01:39:16.454Z,76.42
2018-09-15T01:42:20.070Z,76.49
2018-09-15T01:45:23.955Z,76.88
2018-09-15T01:48:27.614Z,76.69
2018-09-15T01:51:31.354Z,76.10
2018-09-15T01:54:35.063Z,76.39
2018-09-15T01:57:38.852Z,76.17
2018-09-15T02:00:42.804Z,76.58
2018-09-15T02:03:46.630Z,76.66
2018-09-15T02:06:50.590Z,77.64
2018-09-15T02:09:54.227Z,78.19
2018-09-15T02:12:58.005Z,78.31
2018-09-15T02:16:01.734Z,79.16
2018-09-15T02:19:05.375Z,79.55
2018-09-15T02:22:09.056Z,79.50
2018-09-15T02:25:12.642Z,80.78
2018-09-15T02:28:16.219Z,80.80
2018-09-15T02:31:19.969Z,81.80
2018-09-15T02:34:23.629Z,81.39
2018-09-15T02:37:27.382Z,82.64
2018-09-15T02:40:31.032Z,82.17
2018-09-15T02:43:34.700Z,82.62
2018-09-15T02:46:38.376Z,83.71
2018-09-15T02:49:41.999Z,82.77
2018-09-15T02:52:45.692Z,83.48
2018-09-15T02:55:49.326Z,85.01
2018-09-15T02:58:52.935Z,84.34
2018-09-15T03:01:56.664Z,84.24
2018-09-15T03:05:00.342Z,83.60
2018-09-15T03:08:04.033Z,84.47
2018-09-15T03:11:07.771Z,83.81
2018-09-15T03:14:11.414Z,84.37
2018-09-15T03:17:15.126Z,83.86
2018-09-15T03:20:18.821Z,84.18
2018-09-15T03:23:22.500Z,83.99
2018-09-15T03:26:26.099Z,84.06
2018-09-15T03:29:29.871Z,84.22
2018-09-15T03:32:33.533Z,83.87
2018-09-15T03:35:37.171Z,84.24
2018-09-15T03:38:40.847Z,84.72
2018-09-15T03:41:44.625Z,85.14
2018-09-15T03:44:48.133Z,85.76
2018-09-15T03:47:51.856Z,86.32
2018-09-15T03:50:55.425Z,85.99
2018-09-15T03:53:59.237Z,86.48
2018-09-15T03:57:02.915Z,86.38
2018-09-15T04:00:06.856Z,86.17
2018-09-15T04:03:10.593Z,85.47
2018-09-15T04:06:14.446Z,85.45
2018-09-15T04:09:18.159Z,85.44
2018-09-15T04:12:21.849Z,85.48
2018-09-15T04:15:25.756Z,85.27
2018-09-15T04:18:29.509Z,85.71
2018-09-15T04:21:33.291Z,85.95
2018-09-15T04:24:37.103Z,86.18
2018-09-15T04:27:41.055Z,85.92
2018-09-15T04:30:44.841Z,85.36
2018-09-15T04:33:48.830Z,84.91
2018-09-15T04:36:52.529Z,84.10
2018-09-15T04:39:56.249Z,84.37
2018-09-15T04:43:00.155Z,83.96
2018-09-15T04:46:03.900Z,83.99
2018-09-15T04:49:07.528Z,84.03
2018-09-15T04:52:11.381Z,84.41
2018-09-15T04:55:15.138Z,84.63
2018-09-15T04:58:18.946Z,84.56
2018-09-15T05:01:22.589Z,84.28
2018-09-15T05:04:26.177Z,84.28
2018-09-15T05:07:29.870Z,84.02
2018-09-15T05:10:33.549Z,83.90
2018-09-15T05:13:37.321Z,83.86
2018-09-15T05:16:41.079Z,83.76
2018-09-15T05:19:44.742Z,84.44
2018-09-15T05:22:48.520Z,84.40
2018-09-15T05:25:52.115Z,84.57
2018-09-15T05:28:55.977Z,84.91
2018-09-15T05:31:59.821Z,85.28
2018-09-15T05:35:03.621Z,85.38
2018-09-15T05:38:07.236Z,84.11
2018-09-15T05:41:11.965Z,82.53
2018-09-15T05:44:15.622Z,80.15
2018-09-15T05:47:19.299Z,77.99
2018-09-15T05:50:23.040Z,77.95
2018-09-15T05:53:27.138Z,78.40
2018-09-15T05:56:30.989Z,78.64
2018-09-15T05:59:34.913Z,79.09
2018-09-15T06:02:38.745Z,80.84
2018-09-15T06:05:42.556Z,80.90
2018-09-15T06:08:46.310Z,82.02
2018-09-15T06:11:50.030Z,82.12
2018-09-15T06:14:53.724Z,82.57
2018-09-15T06:17:57.541Z,82.15
2018-09-15T06:21:01.211Z,78.17
2018-09-15T06:24:05.475Z,75.25
2018-09-15T06:27:09.275Z,72.65
2018-09-15T06:30:13.105Z,73.09
2018-09-15T06:33:16.825Z,73.72
2018-09-15T06:36:20.728Z,74.90
2018-09-15T06:39:24.310Z,75.65
2018-09-15T06:42:28.121Z,76.50
2018-09-15T06:45:31.805Z,76.81
2018-09-15T06:48:35.454Z,77.68
2018-09-15T06:51:39.419Z,77.19
2018-09-15T06:54:43.135Z,74.34
2018-09-15T06:57:49.382Z,72.79
2018-09-15T07:00:53.106Z,74.61
2018-09-15T07:03:56.909Z,76.71
2018-09-15T07:07:00.668Z,77.26
2018-09-15T07:10:04.280Z,77.21
2018-09-15T07:13:08.204Z,75.20
2018-09-15T07:16:11.825Z,75.00
2018-09-15T07:19:15.584Z,74.35
2018-09-15T07:22:19.295Z,74.33
2018-09-15T07:25:23.515Z,74.20
2018-09-15T07:28:28.581Z,74.44
2018-09-15T07:31:32.323Z,75.88
2018-09-15T07:34:36.077Z,76.65
2018-09-15T07:37:43.356Z,75.52
2018-09-15T07:40:49.507Z,75.20
2018-09-15T07:43:53.311Z,73.94
2018-09-15T07:46:57.015Z,73.71
2018-09-15T07:50:00.755Z,72.50
2018-09-15T07:53:06.895Z,74.61
2018-09-15T07:56:10.814Z,73.79
2018-09-15T07:59:18.908Z,73.95
2018-09-15T08:02:24.754Z,75.11
2018-09-15T08:05:28.544Z,74.85
2018-09-15T08:08:32.134Z,75.10
2018-09-15T08:11:35.901Z,74.78
2018-09-15T08:14:39.705Z,74.74
2018-09-15T08:17:43.586Z,74.81
2018-09-15T08:20:47.227Z,75.55
2018-09-15T08:23:51.071Z,76.58
2018-09-15T08:26:54.709Z,74.91
2018-09-15T08:29:58.421Z,73.52
2018-09-15T08:33:02.127Z,72.01
2018-09-15T08:36:05.995Z,73.07
2018-09-15T08:39:10.280Z,71.42
2018-09-15T08:42:14.107Z,70.08
2018-09-15T08:45:18.371Z,70.66
2018-09-15T08:48:22.133Z,69.47
2018-09-15T08:51:32.122Z,68.70
2018-09-15T08:54:35.836Z,69.76
2018-09-15T08:57:39.460Z,68.73
2018-09-15T09:00:43.192Z,68.76
2018-09-15T09:03:46.923Z,69.03
2018-09-15T09:06:50.623Z,68.84
2018-09-15T09:09:54.310Z,69.15
2018-09-15T09:12:58.067Z,68.90
2018-09-15T09:16:01.891Z,68.78
2018-09-15T09:19:05.691Z,68.90
2018-09-15T09:22:09.427Z,67.06
2018-09-15T09:25:13.162Z,67.92
2018-09-15T09:28:16.881Z,65.84
2018-09-15T09:31:20.689Z,65.67
2018-09-15T09:34:24.490Z,65.42
2018-09-15T09:37:28.205Z,67.25
2018-09-15T09:40:31.926Z,68.83
2018-09-15T09:43:35.631Z,68.65
2018-09-15T09:46:39.313Z,68.88
2018-09-15T09:49:42.965Z,69.28
2018-09-15T09:52:46.734Z,68.70
2018-09-15T09:55:50.882Z,68.65
2018-09-15T09:58:54.601Z,69.32
2018-09-15T10:02:01.415Z,68.30
2018-09-15T10:05:05.195Z,69.11
2018-09-15T10:08:08.815Z,68.33
2018-09-15T10:11:12.581Z,69.21
2018-09-15T10:14:16.365Z,69.32
2018-09-15T10:17:20.171Z,70.00
2018-09-15T10:20:23.873Z,67.76
2018-09-15T10:23:27.608Z,66.46
2018-09-15T10:26:31.439Z,67.82
2018-09-15T10:29:35.184Z,67.51
2018-09-15T10:32:38.840Z,66.37
2018-09-15T10:35:42.659Z,65.74
2018-09-15T10:38:46.450Z,65.19
2018-09-15T10:41:50.201Z,65.90
2018-09-15T10:44:53.856Z,64.49
2018-09-15T10:47:57.651Z,64.56
2018-09-15T10:51:01.306Z,64.31
2018-09-15T10:54:05.029Z,64.95
2018-09-15T10:57:08.794Z,63.98
2018-09-15T11:00:12.482Z,64.00
2018-09-15T11:03:16.189Z,64.66
2018-09-15T11:06:20.064Z,65.24
2018-09-15T11:09:23.779Z,64.61
2018-09-15T11:12:27.581Z,62.54
2018-09-15T11:15:31.352Z,61.20
2018-09-15T11:18:35.170Z,62.07
2018-09-15T11:21:38.839Z,63.37
2018-09-15T11:24:42.546Z,64.10
2018-09-15T11:27:46.357Z,65.29
2018-09-15T11:30:50.608Z,64.45
2018-09-15T11:33:54.266Z,63.92
2018-09-15T11:36:58.069Z,63.67
2018-09-15T11:40:01.809Z,62.01
2018-09-15T11:43:05.889Z,61.22
2018-09-15T11:46:09.604Z,59.48
2018-09-15T11:49:13.306Z,61.05
2018-09-15T11:52:17.158Z,59.44
2018-09-15T11:55:20.915Z,61.23
2018-09-15T11:58:24.710Z,61.02
2018-09-15T12:01:28.520Z,61.62
2018-09-15T12:04:32.466Z,61.95
2018-09-15T12:07:36.145Z,60.90
2018-09-15T12:10:39.819Z,60.52
2018-09-15T12:13:43.780Z,59.86
2018-09-15T12:16:47.510Z,58.85
2018-09-15T12:19:51.255Z,58.20
2018-09-15T12:22:54.944Z,58.44
2018-09-15T12:25:58.688Z,57.80
2018-09-15T12:29:02.483Z,58.08
2018-09-15T12:32:06.529Z,58.98
2018-09-15T12:35:10.244Z,58.24
2018-09-15T12:38:14.060Z,57.57
2018-09-15T12:41:18.126Z,58.46
2018-09-15T12:44:21.891Z,59.25
2018-09-15T12:47:25.558Z,59.48
2018-09-15T12:50:29.530Z,58.64
2018-09-15T12:53:33.226Z,58.53
2018-09-15T12:56:36.928Z,59.43
2018-09-15T12:59:40.671Z,57.85
2018-09-15T13:02:44.357Z,58.32
2018-09-15T13:05:48.285Z,60.10
2018-09-15T13:08:52.024Z,60.18
2018-09-15T13:11:55.711Z,60.68
2018-09-15T13:14:59.411Z,61.12
2018-09-15T13:18:03.147Z,63.23
2018-09-15T13:21:06.822Z,63.94
2018-09-15T13:24:10.460Z,64.03
2018-09-15T13:27:14.132Z,63.11
2018-09-15T13:30:18.129Z,62.29
2018-09-15T13:33:21.707Z,61.33
2018-09-15T13:36:25.655Z,60.91
2018-09-15T13:39:29.385Z,60.45
2018-09-15T13:42:33.156Z,59.70
2018-09-15T13:45:36.839Z,59.72
2018-09-15T13:48:40.652Z,60.46
2018-09-15T13:51:44.552Z,61.04
2018-09-15T13:54:48.226Z,62.08
2018-09-15T13:57:52.149Z,62.22
2018-09-15T14:00:55.908Z,62.20
2018-09-15T14:03:59.689Z,61.46
2018-09-15T14:07:04.755Z,61.23
2018-09-15T14:10:08.626Z,60.49
2018-09-15T14:13:12.380Z,60.01
2018-09-15T14:19:32.326Z,58.37
2018-09-15T14:22:36.066Z,56.95
2018-09-15T14:25:39.872Z,58.31
2018-09-15T14:28:44.301Z,56.52
2018-09-15T14:31:52.253Z,57.98
2018-09-15T14:34:55.910Z,58.21
2018-09-15T14:37:59.629Z,58.33
2018-09-15T14:41:03.544Z,58.35
2018-09-15T14:44:07.341Z,57.92
2018-09-15T14:47:10.980Z,57.17
2018-09-15T14:50:14.859Z,57.27
2018-09-15T14:53:18.611Z,56.66
2018-09-15T14:56:22.306Z,58.54
2018-09-15T14:59:26.673Z,57.05
2018-09-15T15:02:31.145Z,57.24
2018-09-15T15:05:34.881Z,56.66
2018-09-15T15:08:39.800Z,55.61
2018-09-15T15:11:44.300Z,55.43
2018-09-15T15:14:47.976Z,56.76
2018-09-15T15:17:52.838Z,55.04
2018-09-15T15:20:56.664Z,54.66
2018-09-15T15:24:00.350Z,55.19
2018-09-15T15:27:04.083Z,55.49
2018-09-15T15:30:08.158Z,57.46
2018-09-15T15:33:11.819Z,57.21
2018-09-15T15:36:15.688Z,58.01
2018-09-15T15:39:21.295Z,58.32
2018-09-15T15:42:24.989Z,58.20
2018-09-15T15:45:29.721Z,58.65
2018-09-15T15:48:35.008Z,58.93
2018-09-15T15:51:38.905Z,59.55
2018-09-15T15:54:42.734Z,59.60
2018-09-15T15:57:46.429Z,59.67
2018-09-15T16:00:50.415Z,59.92
2018-09-15T16:03:54.137Z,60.70
2018-09-15T16:06:57.943Z,60.10
2018-09-15T16:10:01.681Z,60.43
2018-09-15T16:13:05.529Z,62.16
2018-09-15T16:16:09.319Z,62.16
2018-09-15T16:19:13.893Z,62.18
2018-09-15T16:22:17.603Z,61.42
2018-09-15T16:25:21.243Z,61.53
2018-09-15T16:28:25.310Z,62.26
2018-09-15T16:31:29.140Z,62.51
2018-09-15T16:34:33.248Z,62.10
2018-09-15T16:37:37.049Z,62.10
2018-09-15T16:40:41.090Z,62.68
2018-09-15T16:43:44.945Z,63.86
2018-09-15T16:46:48.657Z,64.21
2018-09-15T16:49:52.379Z,63.61
2018-09-15T16:52:56.210Z,63.28
2018-09-15T16:55:59.853Z,63.44
2018-09-15T16:59:03.653Z,64.04
2018-09-15T17:02:07.405Z,64.36
2018-09-15T17:05:11.243Z,64.06
2018-09-15T17:08:14.998Z,64.32
2018-09-15T17:11:18.728Z,64.90
2018-09-15T17:14:22.566Z,65.51
2018-09-15T17:17:26.245Z,64.40
2018-09-15T17:20:29.991Z,64.29
2018-09-15T17:23:37.740Z,64.41
2018-09-15T17:26:41.638Z,64.96
2018-09-15T17:29:45.595Z,66.31
2018-09-15T17:32:49.599Z,65.44
2018-09-15T17:35:53.303Z,65.61
2018-09-15T17:38:57.029Z,65.77
2018-09-15T17:42:00.819Z,65.11
2018-09-15T17:45:04.693Z,66.51
2018-09-15T17:48:08.516Z,67.26
2018-09-15T17:51:15.989Z,66.66
2018-09-15T17:54:19.796Z,66.49
2018-09-15T17:57:23.480Z,66.87
2018-09-15T18:00:27.329Z,66.73
2018-09-15T18:03:31.032Z,67.15
2018-09-15T18:06:34.720Z,67.12
2018-09-15T18:09:38.468Z,66.50
2018-09-15T18:12:42.235Z,67.44
2018-09-15T18:15:45.982Z,67.54
2018-09-15T18:18:49.735Z,67.35
2018-09-15T18:21:53.634Z,67.47
2018-09-15T18:24:57.268Z,68.88
2018-09-15T18:28:00.929Z,70.76
2018-09-15T18:31:04.642Z,70.37
2018-09-15T18:34:08.472Z,71.01
2018-09-15T18:37:12.261Z,71.24
2018-09-15T18:40:16.309Z,70.82
2018-09-15T18:43:20.126Z,70.95
2018-09-15T18:46:23.948Z,72.40
2018-09-15T18:49:27.685Z,72.53
2018-09-15T18:52:31.538Z,73.10
2018-09-15T18:55:36.074Z,73.54
2018-09-15T18:58:40.310Z,74.03
2018-09-15T19:01:44.121Z,75.03
2018-09-15T19:04:47.916Z,75.14
2018-09-15T19:07:51.535Z,75.59
2018-09-15T19:10:55.383Z,75.54
2018-09-15T19:13:59.109Z,75.92
2018-09-15T19:17:02.957Z,75.85
2018-09-15T19:20:06.922Z,75.81
2018-09-15T19:23:10.525Z,75.06
2018-09-15T19:26:14.412Z,75.33
2018-09-15T19:29:18.072Z,75.24
2018-09-15T19:32:21.762Z,75.78
2018-09-15T19:35:25.690Z,75.81
2018-09-15T19:38:29.540Z,76.84
2018-09-15T19:41:33.338Z,75.18
2018-09-15T19:44:37.841Z,75.13
2018-09-15T19:47:41.481Z,75.99
2018-09-15T19:50:45.210Z,76.01
2018-09-15T19:53:48.944Z,76.80
2018-09-15T19:56:52.893Z,77.22
2018-09-15T19:59:56.680Z,77.14
2018-09-15T20:03:00.566Z,77.35
2018-09-15T20:06:04.352Z,76.97
2018-09-15T20:09:09.314Z,76.61
2018-09-15T20:12:13.136Z,76.33
2018-09-15T20:15:23.915Z,76.75
2018-09-15T20:18:26.291Z,77.23
2018-09-15T20:21:28.611Z,78.31
2018-09-15T20:24:32.447Z,78.64
2018-09-15T20:27:36.125Z,79.27
2018-09-15T20:30:39.966Z,80.19
2018-09-15T20:33:43.856Z,80.94
2018-09-15T20:36:47.589Z,81.13
2018-09-15T20:39:51.304Z,81.67
2018-09-15T20:42:55.101Z,81.37
2018-09-15T20:45:58.885Z,81.82
2018-09-15T20:49:02.658Z,81.80
2018-09-15T20:52:06.725Z,81.54
2018-09-15T20:55:10.463Z,81.57
2018-09-15T20:58:14.256Z,82.20
2018-09-15T21:01:17.955Z,81.70
2018-09-15T21:04:21.583Z,82.26
2018-09-15T21:07:25.305Z,81.39
2018-09-15T21:10:29.135Z,81.94
2018-09-15T21:13:32.801Z,81.38
2018-09-15T21:16:36.709Z,81.80
2018-09-15T21:19:40.485Z,82.51
2018-09-15T21:22:44.109Z,80.75
2018-09-15T21:25:47.875Z,82.03
2018-09-15T21:28:51.658Z,78.36
2018-09-15T21:31:55.423Z,78.75
2018-09-15T21:34:59.115Z,79.03
2018-09-15T21:38:02.716Z,79.86
2018-09-15T21:41:06.913Z,78.90
2018-09-15T21:44:10.621Z,78.71
2018-09-15T21:47:14.384Z,80.41
2018-09-15T21:50:18.013Z,81.60
2018-09-15T21:53:21.680Z,82.65
2018-09-15T21:56:25.384Z,82.74
2018-09-15T21:59:30.799Z,82.57
2018-09-15T22:02:34.780Z,82.45
2018-09-15T22:05:38.440Z,82.63
2018-09-15T22:08:42.099Z,83.61
2018-09-15T22:11:45.803Z,84.62
2018-09-15T22:14:49.496Z,84.41
2018-09-15T22:17:54.312Z,84.64
2018-09-15T22:20:58.030Z,85.20
2018-09-15T22:24:01.709Z,85.53
2018-09-15T22:27:05.575Z,86.14
2018-09-15T22:30:09.457Z,86.15
2018-09-15T22:33:13.235Z,86.62
2018-09-15T22:36:16.898Z,86.37
2018-09-15T22:39:20.610Z,86.41
2018-09-15T22:42:24.355Z,86.40
2018-09-15T22:45:28.947Z,86.60
2018-09-15T22:48:32.714Z,86.61
2018-09-15T22:51:36.445Z,87.12
2018-09-15T22:54:40.258Z,87.14
2018-09-15T22:57:43.928Z,86.79
2018-09-15T23:00:47.534Z,86.59
2018-09-15T23:03:53.910Z,86.68
2018-09-15T23:06:57.599Z,86.49
2018-09-15T23:10:01.202Z,86.78
2018-09-15T23:13:04.867Z,86.42
2018-09-15T23:16:08.559Z,86.32
2018-09-15T23:19:12.284Z,86.78
2018-09-15T23:22:15.869Z,86.82
2018-09-15T23:25:19.469Z,87.41
2018-09-15T23:28:23.216Z,87.10
2018-09-15T23:31:26.923Z,87.24
2018-09-15T23:34:30.517Z,87.25
2018-09-15T23:37:34.199Z,87.26
2018-09-15T23:40:37.882Z,86.91
2018-09-15T23:43:41.579Z,87.26
2018-09-15T23:46:45.228Z,87.04
2018-09-15T23:49:48.867Z,87.01
2018-09-15T23:52:52.578Z,86.57
2018-09-15T23:55:56.216Z,86.48
2018-09-15T23:59:00.062Z,86.66
